createdAt,value
2023-02-27T00:00:25.216Z,71.48
2023-02-27T00:05:25.162Z,72.42
2023-02-27T00:10:25.102Z,71.89
2023-02-27T00:15:25.060Z,72.52
2023-02-27T00:20:25.002Z,72.77
2023-02-27T00:25:24.947Z,72.42
2023-02-27T00:30:24.892Z,72.42
2023-02-27T00:35:24.984Z,72.74
2023-02-27T00:40:24.717Z,72.31
2023-02-27T00:45:25.336Z,72.42
2023-02-27T00:50:24.613Z,72.00
2023-02-27T00:55:26.253Z,72.11
2023-02-27T01:00:25.146Z,72.21
2023-02-27T01:05:44.134Z,72.00
2023-02-27T01:10:36.536Z,72.00
2023-02-27T01:15:36.447Z,72.31
2023-02-27T01:20:36.424Z,72.21
2023-02-27T01:25:36.330Z,72.77
2023-02-27T01:30:36.330Z,73.39
2023-02-27T01:35:36.199Z,73.29
2023-02-27T01:40:36.141Z,73.39
2023-02-27T01:45:36.117Z,73.71
2023-02-27T01:50:36.020Z,73.74
2023-02-27T01:55:35.938Z,74.06
2023-02-27T02:00:35.932Z,74.58
2023-02-27T02:05:35.832Z,74.27
2023-02-27T02:10:35.843Z,74.83
2023-02-27T02:15:35.681Z,74.93
2023-02-27T02:20:35.917Z,74.83
2023-02-27T02:25:35.587Z,75.04
2023-02-27T02:30:35.581Z,75.04
2023-02-27T02:35:35.428Z,75.56
2023-02-27T02:40:35.401Z,75.70
2023-02-27T02:45:35.355Z,76.33
2023-02-27T02:50:35.368Z,75.81
2023-02-27T02:55:35.199Z,76.86
2023-02-27T03:00:35.146Z,76.96
2023-02-27T03:05:35.063Z,76.43
2023-02-27T03:10:35.008Z,76.75
2023-02-27T03:15:34.985Z,77.28
2023-02-27T03:20:34.886Z,76.57
2023-02-27T03:25:34.811Z,76.26
2023-02-27T03:30:34.789Z,75.91
2023-02-27T03:35:34.677Z,75.81
2023-02-27T03:40:34.627Z,75.63
2023-02-27T03:45:34.544Z,75.49
2023-02-27T03:50:34.526Z,76.15
2023-02-27T03:55:34.482Z,75.84
2023-02-27T04:00:34.389Z,75.95
2023-02-27T04:05:34.354Z,75.52
2023-02-27T04:10:34.308Z,75.52
2023-02-27T04:15:34.158Z,75.00
2023-02-27T04:20:34.103Z,75.10
2023-02-27T04:25:34.059Z,75.21
2023-02-27T04:30:34.040Z,75.21
2023-02-27T04:35:33.922Z,74.90
2023-02-27T04:40:33.884Z,74.68
2023-02-27T04:45:33.805Z,74.90
2023-02-27T04:50:33.774Z,75.52
2023-02-27T04:55:33.665Z,75.84
2023-02-27T05:00:33.632Z,76.05
2023-02-27T05:05:33.631Z,75.87
2023-02-27T05:10:33.485Z,76.09
2023-02-27T05:15:47.769Z,76.19
2023-02-27T05:20:40.161Z,76.51
2023-02-27T05:25:40.100Z,76.51
2023-02-27T05:30:40.054Z,76.61
2023-02-27T05:35:39.983Z,76.61
2023-02-27T05:40:39.932Z,76.61
2023-02-27T05:45:39.859Z,77.03
2023-02-27T05:50:39.826Z,76.82
2023-02-27T05:55:39.788Z,76.93
2023-02-27T06:00:39.675Z,77.24
2023-02-27T06:05:39.608Z,77.35
2023-02-27T06:10:39.544Z,77.03
2023-02-27T06:15:39.503Z,76.82
2023-02-27T06:20:39.411Z,76.79
2023-02-27T06:25:39.346Z,77.10
2023-02-27T06:30:39.444Z,77.31
2023-02-27T06:35:39.263Z,77.42
2023-02-27T06:40:39.142Z,77.31
2023-02-27T06:45:39.097Z,77.62
2023-02-27T06:50:39.002Z,77.84
2023-02-27T06:55:38.969Z,77.52
2023-02-27T07:00:38.865Z,77.62
2023-02-27T07:05:38.852Z,77.59
2023-02-27T07:10:38.769Z,77.48
2023-02-27T07:15:38.724Z,76.33
2023-02-27T07:20:38.628Z,67.26
2023-02-27T07:25:38.574Z,61.67
2023-02-27T07:30:38.517Z,60.05
2023-02-27T07:35:38.479Z,59.64
2023-02-27T07:40:38.365Z,58.44
2023-02-27T07:45:38.330Z,57.43
2023-02-27T07:50:38.258Z,54.32
2023-02-27T07:55:38.183Z,53.55
2023-02-27T08:00:38.075Z,51.31
2023-02-27T08:05:38.103Z,50.84
2023-02-27T08:10:37.975Z,49.64
2023-02-27T08:15:37.906Z,47.97
2023-02-27T08:20:37.836Z,49.05
2023-02-27T08:25:37.791Z,49.02
2023-02-27T08:30:37.705Z,47.52
2023-02-27T08:35:37.666Z,46.36
2023-02-27T08:40:37.599Z,47.92
2023-02-27T08:45:37.663Z,46.65
2023-02-27T08:50:37.438Z,45.78
2023-02-27T08:55:37.365Z,43.98
2023-02-27T09:00:37.310Z,44.43
2023-02-27T09:05:37.274Z,44.62
2023-02-27T09:10:37.193Z,42.14
2023-02-27T09:15:37.140Z,41.85
2023-02-27T09:20:37.056Z,42.38
2023-02-27T09:25:36.968Z,41.89
2023-02-27T09:30:36.902Z,40.62
2023-02-27T09:35:36.859Z,40.81
2023-02-27T09:40:36.774Z,39.05
2023-02-27T09:45:36.749Z,39.34
2023-02-27T09:50:36.709Z,38.50
2023-02-27T09:55:36.591Z,37.92
2023-02-27T10:00:36.519Z,37.51
2023-02-27T10:05:36.459Z,37.53
2023-02-27T10:10:36.380Z,37.40
2023-02-27T10:15:36.342Z,37.19
2023-02-27T10:20:36.253Z,36.05
2023-02-27T10:25:36.220Z,37.43
2023-02-27T10:30:36.283Z,38.69
2023-02-27T10:35:36.153Z,35.85
2023-02-27T10:40:35.990Z,39.50
2023-02-27T10:45:37.884Z,38.46
2023-02-27T10:50:36.231Z,37.41
2023-02-27T10:55:35.821Z,35.24
2023-02-27T11:00:35.723Z,36.32
2023-02-27T11:05:35.631Z,34.88
2023-02-27T11:10:35.578Z,35.02
2023-02-27T11:15:35.572Z,33.91
2023-02-27T11:20:35.465Z,36.25
2023-02-27T11:25:35.423Z,35.16
2023-02-27T11:30:35.315Z,35.24
2023-02-27T11:35:35.305Z,37.14
2023-02-27T11:40:35.209Z,37.72
2023-02-27T11:46:19.011Z,35.58
2023-02-27T11:50:36.063Z,35.71
2023-02-27T11:55:35.030Z,34.46
2023-02-27T12:00:34.929Z,34.77
2023-02-27T12:05:34.912Z,34.61
2023-02-27T12:10:34.791Z,33.01
2023-02-27T12:15:34.757Z,32.81
2023-02-27T12:20:34.649Z,34.27
2023-02-27T12:25:34.611Z,33.07
2023-02-27T12:30:34.548Z,36.07
2023-02-27T12:35:34.459Z,39.78
2023-02-27T12:40:34.395Z,44.26
2023-02-27T12:45:34.390Z,42.42
2023-02-27T12:50:34.248Z,43.73
2023-02-27T12:55:34.195Z,42.43
2023-02-27T13:00:35.342Z,44.47
2023-02-27T13:05:34.075Z,44.76
2023-02-27T13:10:33.999Z,42.37
2023-02-27T13:15:33.961Z,43.01
2023-02-27T13:20:33.850Z,43.84
2023-02-27T13:25:33.857Z,42.31
2023-02-27T13:30:33.716Z,43.63
2023-02-27T13:35:34.060Z,41.28
2023-02-27T13:40:33.636Z,42.62
2023-02-27T13:45:33.554Z,42.08
2023-02-27T13:50:33.473Z,40.62
2023-02-27T13:55:33.426Z,41.35
2023-02-27T14:00:33.358Z,40.11
2023-02-27T14:05:33.285Z,41.57
2023-02-27T14:10:33.186Z,41.24
2023-02-27T14:15:33.207Z,41.92
2023-02-27T14:20:33.092Z,43.38
2023-02-27T14:25:33.016Z,43.81
2023-02-27T14:30:32.964Z,44.12
2023-02-27T14:35:32.936Z,44.02
2023-02-27T14:40:32.836Z,44.06
2023-02-27T14:45:32.749Z,45.13
2023-02-27T14:50:32.659Z,46.11
2023-02-27T14:55:32.610Z,47.66
2023-02-27T15:00:32.850Z,45.23
2023-02-27T15:05:34.937Z,46.81
2023-02-27T15:10:32.401Z,46.91
2023-02-27T15:15:32.425Z,47.14
2023-02-27T15:20:32.309Z,48.79
2023-02-27T15:25:32.231Z,47.16
2023-02-27T15:30:32.166Z,48.53
2023-02-27T15:35:32.082Z,49.56
2023-02-27T15:40:31.994Z,49.77
2023-02-27T15:45:32.034Z,48.73
2023-02-27T15:50:31.913Z,48.94
2023-02-27T15:55:31.832Z,50.93
2023-02-27T16:00:31.816Z,50.31
2023-02-27T16:05:31.685Z,50.62
2023-02-27T16:10:31.611Z,51.68
2023-02-27T16:15:31.567Z,50.85
2023-02-27T16:20:31.494Z,52.33
2023-02-27T16:25:31.480Z,51.81
2023-02-27T16:30:31.356Z,51.08
2023-02-27T16:35:31.322Z,54.00
2023-02-27T16:40:31.537Z,54.42
2023-02-27T16:45:31.254Z,53.08
2023-02-27T16:50:31.100Z,54.13
2023-02-27T16:55:33.140Z,53.72
2023-02-27T17:00:30.981Z,54.58
2023-02-27T17:05:30.964Z,55.20
2023-02-27T17:10:30.842Z,54.68
2023-02-27T17:15:30.801Z,55.51
2023-02-27T17:20:30.725Z,56.26
2023-02-27T17:25:30.650Z,55.33
2023-02-27T17:30:30.672Z,55.54
2023-02-27T17:35:30.604Z,56.16
2023-02-27T17:40:30.521Z,56.39
2023-02-27T17:45:30.378Z,56.16
2023-02-27T17:50:30.345Z,56.16
2023-02-27T17:55:30.257Z,56.39
2023-02-27T18:00:30.217Z,57.12
2023-02-27T18:05:30.129Z,58.05
2023-02-27T18:10:30.109Z,58.47
2023-02-27T18:15:30.067Z,57.43
2023-02-27T18:20:29.935Z,57.64
2023-02-27T18:25:29.865Z,58.15
2023-02-27T18:30:30.887Z,59.74
2023-02-27T18:35:29.781Z,59.22
2023-02-27T18:40:29.754Z,60.57
2023-02-27T18:45:29.667Z,63.28
2023-02-27T18:50:29.604Z,62.99
2023-02-27T18:55:29.502Z,64.65
2023-02-27T19:00:29.460Z,63.93
2023-02-27T19:05:29.380Z,65.52
2023-02-27T19:10:29.296Z,67.60
2023-02-27T19:15:29.262Z,67.52
2023-02-27T19:20:29.208Z,68.70
2023-02-27T19:25:29.094Z,68.63
2023-02-27T19:30:30.031Z,69.25
2023-02-27T19:35:29.101Z,69.46
2023-02-27T19:40:29.055Z,70.50
2023-02-27T19:45:28.886Z,68.42
2023-02-27T19:50:28.793Z,69.77
2023-02-27T19:55:28.692Z,69.87
2023-02-27T20:00:28.730Z,71.44
2023-02-27T20:05:28.587Z,71.86
2023-02-27T20:10:28.581Z,70.40
2023-02-27T20:15:28.457Z,67.58
2023-02-27T20:20:30.071Z,68.21
2023-02-27T20:25:28.367Z,67.03
2023-02-27T20:30:28.307Z,66.83
2023-02-27T20:35:28.196Z,67.73
2023-02-27T20:40:28.142Z,66.90
2023-02-27T20:45:28.056Z,67.00
2023-02-27T20:50:28.023Z,66.90
2023-02-27T20:55:27.931Z,67.21
2023-02-27T21:00:27.897Z,67.42
2023-02-27T21:05:27.805Z,66.69
2023-02-27T21:10:27.765Z,67.00
2023-02-27T21:15:27.661Z,67.73
2023-02-27T21:20:27.617Z,67.83
2023-02-27T21:25:27.548Z,67.86
2023-02-27T21:30:28.498Z,68.49
2023-02-27T21:35:27.450Z,69.25
2023-02-27T21:40:27.398Z,69.35
2023-02-27T21:45:27.277Z,70.22
2023-02-27T21:50:28.944Z,70.84
2023-02-27T21:55:27.158Z,71.19
2023-02-27T22:00:27.101Z,71.19
2023-02-27T22:05:27.024Z,71.75
2023-02-27T22:10:26.981Z,73.10
2023-02-27T22:15:26.899Z,73.34
2023-02-27T22:20:26.853Z,74.38
2023-02-27T22:25:26.744Z,75.57
2023-02-27T22:30:26.715Z,75.46
2023-02-27T22:35:26.652Z,76.68
2023-02-27T22:40:26.594Z,75.12
2023-02-27T22:45:26.520Z,74.70
2023-02-27T22:50:26.459Z,74.35
2023-02-27T22:55:26.431Z,74.15
2023-02-27T23:00:26.335Z,74.35
2023-02-27T23:05:26.274Z,74.15
2023-02-27T23:10:26.214Z,74.25
2023-02-27T23:15:26.291Z,74.46
2023-02-27T23:20:26.088Z,75.01
2023-02-27T23:25:25.969Z,75.43
2023-02-27T23:30:25.946Z,75.53
2023-02-27T23:35:25.901Z,75.95
2023-02-27T23:40:25.807Z,76.16
2023-02-27T23:45:25.840Z,76.37
2023-02-27T23:50:25.688Z,76.72
2023-02-27T23:55:25.633Z,76.61
